createdAt,value
2018-12-06T00:01:37.254Z,0.50
2018-12-06T00:04:06.339Z,0.50
2018-12-06T00:06:35.411Z,0.40
2018-12-06T00:09:05.426Z,0.40
2018-12-06T00:11:36.362Z,0.50
2018-12-06T00:14:05.447Z,0.50
2018-12-06T00:16:34.613Z,0.50
2018-12-06T00:19:09.373Z,0.40
2018-12-06T00:21:38.447Z,0.40
2018-12-06T00:24:07.625Z,0.40
2018-12-06T00:26:36.770Z,0.30
2018-12-06T00:29:06.148Z,0.30
2018-12-06T00:31:35.260Z,0.30
2018-12-06T00:34:04.356Z,0.30
2018-12-06T00:36:33.420Z,0.30
2018-12-06T00:39:02.652Z,0.30
2018-12-06T00:41:33.690Z,0.40
2018-12-06T00:44:02.991Z,0.30
2018-12-06T00:46:32.067Z,0.40
2018-12-06T00:49:01.295Z,0.40
2018-12-06T00:51:30.402Z,0.30
2018-12-06T00:53:59.558Z,0.30
2018-12-06T00:56:28.612Z,0.20
2018-12-06T00:58:57.772Z,0.30
2018-12-06T01:01:26.875Z,0.30
2018-12-06T01:03:55.992Z,0.30
2018-12-06T01:06:25.041Z,0.20
2018-12-06T01:08:54.108Z,0.20
2018-12-06T01:11:23.519Z,0.10
2018-12-06T01:13:52.778Z,0.20
2018-12-06T01:16:22.017Z,0.20
2018-12-06T01:18:51.356Z,0.10
2018-12-06T01:21:20.595Z,0.00
2018-12-06T01:23:49.681Z,-0.10
2018-12-06T01:26:18.819Z,-0.10
2018-12-06T01:28:47.911Z,-0.10
2018-12-06T01:31:17.000Z,-0.20
2018-12-06T01:33:46.093Z,-0.30
2018-12-06T01:36:15.287Z,-0.30
2018-12-06T01:38:44.399Z,-0.40
2018-12-06T01:41:13.450Z,-0.30
2018-12-06T01:43:42.540Z,-0.40
2018-12-06T01:46:11.626Z,-0.40
2018-12-06T01:48:40.807Z,-0.40
2018-12-06T01:51:09.877Z,-0.30
2018-12-06T01:53:38.961Z,-0.30
2018-12-06T01:56:08.044Z,-0.20
2018-12-06T01:58:37.224Z,-0.10
2018-12-06T02:01:06.392Z,-0.20
2018-12-06T02:03:35.466Z,-0.10
2018-12-06T02:06:11.237Z,0.00
2018-12-06T02:08:40.285Z,0.20
2018-12-06T02:11:09.432Z,0.00
2018-12-06T02:13:38.477Z,0.00
2018-12-06T02:16:07.590Z,0.10
2018-12-06T02:18:36.684Z,0.20
2018-12-06T02:21:05.866Z,0.20
2018-12-06T02:23:34.995Z,0.20
2018-12-06T02:26:04.371Z,0.20
2018-12-06T02:28:33.603Z,0.30
2018-12-06T02:31:02.698Z,0.10
2018-12-06T02:33:31.804Z,0.00
2018-12-06T02:36:00.865Z,0.20
2018-12-06T02:38:30.221Z,0.30
2018-12-06T02:40:59.508Z,0.20
2018-12-06T02:43:28.816Z,0.20
2018-12-06T02:45:57.898Z,0.40
2018-12-06T02:48:26.974Z,0.40
2018-12-06T02:50:56.074Z,0.50
2018-12-06T02:53:25.123Z,0.50
2018-12-06T02:55:54.237Z,0.30
2018-12-06T02:58:23.275Z,0.30
2018-12-06T03:00:52.353Z,0.30
2018-12-06T03:03:21.684Z,0.30
2018-12-06T03:05:50.827Z,0.40
2018-12-06T03:08:21.479Z,0.30
2018-12-06T03:10:50.564Z,0.40
2018-12-06T03:13:19.626Z,0.20
2018-12-06T03:15:49.000Z,0.20
2018-12-06T03:18:18.072Z,0.20
2018-12-06T03:20:47.145Z,0.10
2018-12-06T03:23:16.215Z,0.20
2018-12-06T03:25:45.351Z,0.40
2018-12-06T03:28:14.424Z,0.50
2018-12-06T03:30:43.675Z,0.50
2018-12-06T03:33:19.323Z,0.50
2018-12-06T03:35:48.482Z,0.50
2018-12-06T03:38:17.707Z,0.70
2018-12-06T03:40:46.791Z,0.60
2018-12-06T03:43:15.924Z,0.50
2018-12-06T03:45:46.321Z,0.60
2018-12-06T03:48:15.546Z,0.50
2018-12-06T03:50:44.708Z,0.70
2018-12-06T03:53:13.772Z,0.60
2018-12-06T03:55:43.124Z,0.40
2018-12-06T03:58:12.190Z,0.60
2018-12-06T04:00:41.266Z,0.80
2018-12-06T04:03:10.397Z,0.70
2018-12-06T04:05:39.525Z,0.70
2018-12-06T04:08:08.783Z,0.50
2018-12-06T04:10:39.009Z,0.40
2018-12-06T04:13:08.124Z,0.40
2018-12-06T04:15:37.272Z,0.30
2018-12-06T04:18:06.368Z,0.10
2018-12-06T04:20:35.416Z,0.20
2018-12-06T04:23:04.528Z,0.30
2018-12-06T04:25:33.592Z,0.20
2018-12-06T04:28:02.850Z,0.40
2018-12-06T04:30:31.930Z,0.50
2018-12-06T04:33:01.062Z,0.60
2018-12-06T04:35:30.195Z,0.60
2018-12-06T04:37:59.293Z,0.30
2018-12-06T04:40:28.356Z,0.10
2018-12-06T04:42:57.476Z,0.20
2018-12-06T04:45:26.566Z,0.20
2018-12-06T04:47:55.979Z,0.40
2018-12-06T04:50:25.138Z,0.30
2018-12-06T04:52:54.440Z,0.20
2018-12-06T04:55:23.824Z,0.50
2018-12-06T04:57:52.928Z,0.30
2018-12-06T05:00:23.544Z,0.50
2018-12-06T05:02:52.766Z,0.60
2018-12-06T05:05:21.931Z,0.80
2018-12-06T05:07:50.990Z,0.80
2018-12-06T05:10:20.047Z,0.70
2018-12-06T05:12:49.117Z,0.70
2018-12-06T05:15:18.173Z,0.80
2018-12-06T05:17:47.546Z,0.80
2018-12-06T05:20:16.608Z,0.60
2018-12-06T05:22:45.702Z,0.50
2018-12-06T05:25:14.814Z,0.60
2018-12-06T05:27:43.959Z,0.60
2018-12-06T05:30:13.078Z,0.70
2018-12-06T05:32:42.166Z,0.70
2018-12-06T05:35:11.280Z,0.60
2018-12-06T05:37:40.391Z,0.60
2018-12-06T05:40:09.799Z,0.70
2018-12-06T05:42:38.895Z,0.70
2018-12-06T05:45:09.481Z,0.80
2018-12-06T05:47:38.591Z,0.80
2018-12-06T05:50:08.155Z,0.90
2018-12-06T05:52:37.487Z,0.90
2018-12-06T05:55:06.567Z,0.80
2018-12-06T05:57:35.761Z,0.80
2018-12-06T06:00:06.287Z,0.80
2018-12-06T06:02:35.545Z,0.90
2018-12-06T06:05:06.445Z,0.90
2018-12-06T06:07:35.915Z,0.70
2018-12-06T06:10:06.497Z,0.40
2018-12-06T06:12:35.612Z,0.10
2018-12-06T06:15:06.167Z,-0.10
2018-12-06T06:17:35.322Z,-0.10
2018-12-06T06:20:04.978Z,-0.20
2018-12-06T06:22:39.471Z,-0.10
2018-12-06T06:25:08.744Z,-0.20
2018-12-06T06:27:37.969Z,-0.30
2018-12-06T06:30:07.386Z,-0.10
2018-12-06T06:32:36.725Z,0.10
2018-12-06T06:35:06.626Z,0.20
2018-12-06T06:37:35.682Z,0.30
2018-12-06T06:40:05.618Z,0.20
2018-12-06T06:42:34.912Z,0.40
2018-12-06T06:45:04.802Z,0.40
2018-12-06T06:47:33.904Z,0.50
2018-12-06T06:50:03.120Z,0.60
2018-12-06T06:52:32.256Z,0.70
2018-12-06T06:55:01.309Z,0.70
2018-12-06T06:57:30.403Z,0.70
2018-12-06T06:59:59.481Z,0.80
2018-12-06T07:02:28.549Z,0.90
2018-12-06T07:04:57.607Z,0.80
2018-12-06T07:07:26.762Z,1.00
2018-12-06T07:09:55.840Z,1.00
2018-12-06T07:12:24.953Z,1.00
2018-12-06T07:14:54.246Z,1.10
2018-12-06T07:17:23.414Z,1.10
2018-12-06T07:19:52.748Z,1.10
2018-12-06T07:22:21.837Z,1.20
2018-12-06T07:24:50.987Z,1.10
2018-12-06T07:27:20.128Z,1.10
2018-12-06T07:29:49.227Z,1.00
2018-12-06T07:32:18.273Z,1.30
2018-12-06T07:34:47.318Z,1.50
2018-12-06T07:37:16.771Z,1.50
2018-12-06T07:39:45.812Z,1.60
2018-12-06T07:42:14.887Z,1.80
2018-12-06T07:44:43.951Z,1.90
2018-12-06T07:47:13.004Z,1.80
2018-12-06T07:49:42.212Z,1.70
2018-12-06T07:52:11.452Z,1.80
2018-12-06T07:54:40.484Z,1.90
2018-12-06T07:57:09.512Z,1.90
2018-12-06T07:59:38.582Z,1.80
2018-12-06T08:02:07.656Z,1.80
2018-12-06T08:04:36.814Z,1.80
2018-12-06T08:07:05.997Z,1.80
2018-12-06T08:09:35.045Z,1.80
2018-12-06T08:12:04.204Z,1.80
2018-12-06T08:14:33.405Z,1.90
2018-12-06T08:17:02.562Z,1.90
2018-12-06T08:19:31.997Z,2.00
2018-12-06T08:22:01.020Z,2.00
2018-12-06T08:24:30.094Z,2.10
2018-12-06T08:26:59.212Z,2.30
2018-12-06T08:29:28.280Z,2.40
2018-12-06T08:31:57.431Z,2.30
2018-12-06T08:34:26.495Z,2.20
2018-12-06T08:36:55.873Z,2.30
2018-12-06T08:39:25.200Z,2.40
2018-12-06T08:41:54.440Z,2.40
2018-12-06T08:44:23.485Z,2.40
2018-12-06T08:46:52.756Z,2.40
2018-12-06T08:49:21.775Z,2.50
2018-12-06T08:51:50.798Z,2.60
2018-12-06T08:54:20.614Z,2.60
2018-12-06T08:56:50.288Z,2.60
2018-12-06T08:59:19.562Z,2.60
2018-12-06T09:01:49.358Z,2.60
2018-12-06T09:04:19.135Z,2.80
2018-12-06T09:06:48.706Z,2.80
2018-12-06T09:09:18.647Z,2.50
2018-12-06T09:11:48.251Z,2.60
2018-12-06T09:14:17.953Z,2.70
2018-12-06T09:16:47.637Z,2.80
2018-12-06T09:19:17.309Z,2.90
2018-12-06T09:21:47.150Z,2.90
2018-12-06T09:24:17.084Z,2.90
2018-12-06T09:26:46.641Z,2.80
2018-12-06T09:29:16.265Z,2.70
2018-12-06T09:31:46.059Z,2.80
2018-12-06T09:34:15.642Z,2.90
2018-12-06T09:36:45.235Z,3.10
2018-12-06T09:39:14.891Z,3.20
2018-12-06T09:41:44.332Z,3.30
2018-12-06T09:44:14.073Z,3.20
2018-12-06T09:46:44.007Z,3.10
2018-12-06T09:49:13.311Z,3.10
2018-12-06T09:51:43.071Z,2.80
2018-12-06T09:54:12.783Z,2.90
2018-12-06T09:56:42.467Z,3.00
2018-12-06T09:59:11.996Z,3.00
2018-12-06T10:01:41.490Z,2.90
2018-12-06T10:04:11.263Z,2.60
2018-12-06T10:06:40.830Z,2.70
2018-12-06T10:09:10.464Z,2.60
2018-12-06T10:11:40.078Z,2.80
2018-12-06T10:14:16.348Z,3.00
2018-12-06T10:16:46.236Z,2.90
2018-12-06T10:19:15.798Z,3.00
2018-12-06T10:21:45.297Z,3.10
2018-12-06T10:24:14.796Z,3.20
2018-12-06T10:26:44.463Z,3.20
2018-12-06T10:29:14.237Z,3.30
2018-12-06T10:31:43.993Z,3.40
2018-12-06T10:34:13.595Z,3.30
2018-12-06T10:36:43.052Z,3.50
2018-12-06T10:39:12.678Z,3.20
2018-12-06T10:41:42.524Z,3.20
2018-12-06T10:44:21.742Z,3.30
2018-12-06T10:46:52.319Z,3.20
2018-12-06T10:49:21.861Z,3.00
2018-12-06T10:51:51.565Z,3.10
2018-12-06T10:54:21.394Z,3.20
2018-12-06T10:56:51.089Z,3.40
2018-12-06T10:59:20.563Z,3.40
2018-12-06T11:01:55.529Z,3.40
2018-12-06T11:04:29.452Z,3.40
2018-12-06T11:06:59.033Z,3.60
2018-12-06T11:09:28.729Z,3.40
2018-12-06T11:11:58.211Z,3.40
2018-12-06T11:14:27.738Z,3.50
2018-12-06T11:16:57.279Z,3.60
2018-12-06T11:19:26.831Z,3.60
2018-12-06T11:21:56.447Z,3.60
2018-12-06T11:24:26.311Z,3.50
2018-12-06T11:26:55.911Z,3.60
2018-12-06T11:29:25.560Z,3.40
2018-12-06T11:31:55.047Z,3.50
2018-12-06T11:34:24.730Z,3.60
2018-12-06T11:36:54.241Z,3.60
2018-12-06T11:39:23.797Z,3.70
2018-12-06T11:41:53.333Z,3.50
2018-12-06T11:44:22.708Z,3.40
2018-12-06T11:46:52.241Z,3.30
2018-12-06T11:49:21.775Z,3.40
2018-12-06T11:51:51.425Z,3.30
2018-12-06T11:54:21.071Z,3.30
2018-12-06T11:56:50.903Z,3.20
2018-12-06T11:59:20.573Z,3.30
2018-12-06T12:01:51.283Z,3.30
2018-12-06T12:04:20.941Z,3.20
2018-12-06T12:06:51.504Z,3.20
2018-12-06T12:09:21.339Z,3.20
2018-12-06T12:11:50.911Z,2.90
2018-12-06T12:14:22.482Z,3.00
2018-12-06T12:16:52.308Z,3.20
2018-12-06T12:19:21.879Z,3.00
2018-12-06T12:21:51.620Z,2.90
2018-12-06T12:24:21.097Z,3.10
2018-12-06T12:26:50.783Z,3.20
2018-12-06T12:29:20.266Z,3.20
2018-12-06T12:31:49.997Z,3.30
2018-12-06T12:34:19.459Z,3.20
2018-12-06T12:36:48.907Z,3.10
2018-12-06T12:39:18.741Z,3.00
2018-12-06T12:41:48.480Z,3.10
2018-12-06T12:44:18.053Z,3.00
2018-12-06T12:46:47.676Z,3.00
2018-12-06T12:49:17.256Z,3.10
2018-12-06T12:51:46.904Z,3.20
2018-12-06T12:54:16.567Z,3.20
2018-12-06T12:56:46.423Z,3.00
2018-12-06T12:59:16.046Z,2.80
2018-12-06T13:01:45.540Z,2.70
2018-12-06T13:04:15.246Z,2.80
2018-12-06T13:06:44.870Z,2.80
2018-12-06T13:09:14.628Z,2.80
2018-12-06T13:11:44.423Z,2.80
2018-12-06T13:14:14.294Z,2.90
2018-12-06T13:16:43.774Z,2.80
2018-12-06T13:19:13.562Z,2.80
2018-12-06T13:21:43.140Z,2.80
2018-12-06T13:24:12.547Z,2.70
2018-12-06T13:26:42.332Z,2.70
2018-12-06T13:29:11.920Z,2.70
2018-12-06T13:31:43.251Z,2.70
2018-12-06T13:34:12.872Z,2.60
2018-12-06T13:36:42.578Z,2.60
2018-12-06T13:39:12.212Z,2.60
2018-12-06T13:41:41.850Z,2.60
2018-12-06T13:44:11.255Z,2.60
2018-12-06T13:46:41.858Z,2.60
2018-12-06T13:49:11.581Z,2.70
2018-12-06T13:51:41.174Z,2.50
2018-12-06T13:54:10.621Z,2.50
2018-12-06T13:56:40.410Z,2.50
2018-12-06T13:59:10.003Z,2.30
2018-12-06T14:01:39.584Z,2.60
2018-12-06T14:04:09.438Z,2.50
2018-12-06T14:06:39.070Z,2.30
2018-12-06T14:09:08.640Z,2.40
2018-12-06T14:11:38.222Z,2.40
2018-12-06T14:14:07.785Z,2.30
2018-12-06T14:16:37.578Z,2.20
2018-12-06T14:19:07.216Z,2.20
2018-12-06T14:21:36.681Z,2.30
2018-12-06T14:24:06.542Z,2.30
2018-12-06T14:26:36.268Z,2.30
2018-12-06T14:29:05.750Z,2.40
2018-12-06T14:31:35.388Z,2.50
2018-12-06T14:34:11.323Z,2.40
2018-12-06T14:36:40.784Z,2.40
2018-12-06T14:39:10.190Z,2.40
2018-12-06T14:41:39.671Z,2.30
2018-12-06T14:44:09.592Z,2.40
2018-12-06T14:46:39.176Z,2.40
2018-12-06T14:49:09.054Z,2.30
2018-12-06T14:51:38.775Z,2.20
2018-12-06T14:54:08.607Z,2.20
2018-12-06T14:56:38.840Z,2.00
2018-12-06T14:59:08.778Z,2.20
2018-12-06T15:01:39.359Z,2.30
2018-12-06T15:04:09.140Z,2.30
2018-12-06T15:06:38.898Z,2.10
2018-12-06T15:09:09.147Z,2.20
2018-12-06T15:11:44.541Z,2.30
2018-12-06T18:26:00.272Z,2.10
2018-12-06T18:28:29.680Z,2.10
2018-12-06T18:30:59.545Z,2.20
2018-12-06T18:33:28.621Z,2.10
2018-12-06T18:35:57.813Z,2.10
2018-12-06T18:38:26.875Z,2.20
2018-12-06T18:40:55.986Z,2.20
2018-12-06T18:43:27.023Z,2.10
2018-12-06T18:45:56.391Z,2.20
2018-12-06T18:48:25.661Z,2.10
2018-12-06T18:50:55.401Z,2.20
2018-12-06T18:53:24.463Z,2.10
2018-12-06T18:55:53.841Z,2.10
2018-12-06T18:58:22.899Z,2.10
2018-12-06T19:00:52.777Z,2.10
2018-12-06T19:03:22.050Z,2.00
2018-12-06T19:05:51.661Z,2.10
2018-12-06T19:08:21.417Z,2.00
2018-12-06T19:10:51.171Z,2.10
2018-12-06T19:13:20.299Z,2.10
2018-12-06T19:15:49.351Z,2.10
2018-12-06T19:18:18.933Z,2.10
2018-12-06T19:20:48.257Z,2.10
2018-12-06T19:23:17.681Z,2.10
2018-12-06T19:25:46.843Z,2.00
2018-12-06T19:28:16.214Z,2.20
2018-12-06T19:30:45.913Z,2.20
2018-12-06T19:33:15.811Z,2.20
2018-12-06T19:35:44.928Z,2.20
2018-12-06T19:38:14.448Z,2.30
2018-12-06T19:40:44.029Z,2.40
2018-12-06T19:43:14.463Z,2.40
2018-12-06T19:45:43.855Z,2.40
2018-12-06T19:48:13.443Z,2.40
2018-12-06T19:50:42.731Z,2.40
2018-12-06T19:53:11.806Z,2.30
2018-12-06T19:55:41.588Z,2.20
2018-12-06T19:58:10.656Z,2.30
2018-12-06T20:00:40.278Z,2.20
2018-12-06T20:03:10.260Z,2.30
2018-12-06T20:05:39.473Z,2.40
2018-12-06T20:08:09.283Z,2.30
2018-12-06T20:10:38.999Z,2.30
2018-12-06T20:13:08.293Z,2.20
2018-12-06T20:15:37.381Z,2.10
2018-12-06T20:18:07.161Z,1.90
2018-12-06T20:20:36.248Z,2.10
2018-12-06T20:23:06.194Z,2.00
2018-12-06T20:25:39.431Z,2.10
2018-12-06T20:28:10.301Z,1.70
2018-12-06T20:30:39.417Z,1.70
2018-12-06T20:33:08.735Z,1.70
2018-12-06T20:35:37.933Z,1.60
2018-12-06T20:38:07.336Z,1.40
2018-12-06T20:40:36.479Z,1.40
2018-12-06T20:43:05.737Z,1.50
2018-12-06T20:45:34.918Z,1.20
2018-12-06T20:48:03.966Z,1.30
2018-12-06T20:50:33.020Z,1.30
2018-12-06T20:53:02.084Z,1.40
2018-12-06T20:55:31.451Z,1.40
2018-12-06T20:58:00.561Z,1.30
2018-12-06T21:00:29.839Z,1.40
2018-12-06T21:02:58.914Z,1.50
2018-12-06T21:05:28.297Z,1.50
2018-12-06T21:07:58.457Z,1.50
2018-12-06T21:10:27.486Z,1.50
2018-12-06T21:12:56.552Z,1.40
2018-12-06T21:15:25.579Z,1.50
2018-12-06T21:17:54.854Z,1.60
2018-12-06T21:20:24.012Z,1.50
2018-12-06T21:22:53.104Z,1.60
2018-12-06T21:25:22.367Z,1.60
2018-12-06T21:27:51.643Z,1.70
2018-12-06T21:30:20.740Z,1.70
2018-12-06T21:32:50.257Z,1.60
2018-12-06T21:35:19.380Z,1.60
2018-12-06T21:37:48.622Z,1.70
2018-12-06T21:40:17.784Z,1.80
2018-12-06T21:42:46.866Z,1.70
2018-12-06T21:45:16.102Z,1.70
2018-12-06T21:47:45.164Z,1.70
2018-12-06T21:50:15.998Z,1.70
2018-12-06T21:52:45.088Z,1.70
2018-12-06T21:55:14.206Z,1.60
2018-12-06T21:57:43.508Z,1.70
2018-12-06T22:00:12.898Z,1.70
2018-12-06T22:02:42.046Z,1.90
2018-12-06T22:05:11.429Z,1.70
2018-12-06T22:07:40.482Z,1.80
2018-12-06T22:10:09.675Z,1.70
2018-12-06T22:12:39.049Z,1.70
2018-12-06T22:15:08.188Z,1.80
2018-12-06T22:17:37.292Z,1.70
2018-12-06T22:20:07.404Z,1.70
2018-12-06T22:22:36.479Z,1.60
2018-12-06T22:25:05.876Z,1.80
2018-12-06T22:27:35.072Z,1.60
2018-12-06T22:30:05.546Z,1.70
2018-12-06T22:32:34.738Z,1.60
2018-12-06T22:35:03.970Z,1.70
2018-12-06T22:37:33.034Z,1.70
2018-12-06T22:40:02.077Z,1.70
2018-12-06T22:42:31.145Z,1.80
2018-12-06T22:46:06.266Z,1.60
2018-12-06T22:48:35.365Z,1.70
2018-12-06T22:51:04.582Z,1.70
2018-12-06T22:53:33.666Z,1.70
2018-12-06T22:56:02.858Z,1.70
2018-12-06T22:58:31.858Z,1.90
2018-12-06T23:01:02.131Z,2.00
2018-12-06T23:03:33.216Z,1.90
2018-12-06T23:06:02.274Z,1.80
2018-12-06T23:08:31.432Z,1.70
2018-12-06T23:11:00.490Z,1.70
2018-12-06T23:13:29.553Z,1.80
2018-12-06T23:15:59.052Z,1.80
2018-12-06T23:18:28.077Z,1.80
2018-12-06T23:27:49.138Z,1.90
2018-12-06T23:30:18.490Z,2.10
2018-12-06T23:32:47.596Z,2.00
2018-12-06T23:35:16.861Z,2.00
2018-12-06T23:37:45.927Z,2.00
2018-12-06T23:40:14.957Z,1.90
2018-12-06T23:42:44.045Z,2.00
2018-12-06T23:45:13.289Z,2.00
2018-12-06T23:47:42.340Z,2.00
2018-12-06T23:50:11.493Z,2.00
2018-12-06T23:52:40.550Z,2.10
2018-12-06T23:55:10.823Z,2.10
2018-12-06T23:57:39.885Z,2.20
